createdAt,value
2018-01-13T00:03:29.745Z,6.60
2018-01-13T00:06:00.311Z,6.60
2018-01-13T00:08:29.989Z,6.60
2018-01-13T00:10:56.210Z,6.60
2018-01-13T00:13:24.950Z,6.60
2018-01-13T00:15:51.183Z,6.70
2018-01-13T00:18:21.372Z,6.60
2018-01-13T00:20:49.315Z,6.60
2018-01-13T00:23:16.527Z,6.50
2018-01-13T00:25:45.066Z,6.60
2018-01-13T00:28:13.141Z,6.60
2018-01-13T00:30:40.105Z,6.60
2018-01-13T00:33:07.953Z,6.60
2018-01-13T00:35:35.094Z,6.60
2018-01-13T00:38:04.794Z,6.70
2018-01-13T00:40:32.547Z,6.60
2018-01-13T00:43:00.229Z,6.60
2018-01-13T00:45:27.213Z,6.60
2018-01-13T00:47:55.141Z,6.60
2018-01-13T00:50:23.291Z,6.60
2018-01-13T00:52:51.977Z,6.60
2018-01-13T00:55:18.207Z,6.60
2018-01-13T00:57:45.662Z,6.60
2018-01-13T01:00:14.281Z,6.60
2018-01-13T01:02:42.561Z,6.60
2018-01-13T01:05:10.133Z,6.60
2018-01-13T01:07:36.890Z,6.60
2018-01-13T01:10:04.747Z,6.60
2018-01-13T01:12:31.705Z,6.60
2018-01-13T01:14:58.894Z,6.60
2018-01-13T01:17:26.982Z,6.60
2018-01-13T01:19:54.249Z,6.60
2018-01-13T01:22:20.972Z,6.50
2018-01-13T01:24:47.240Z,6.50
2018-01-13T01:27:14.256Z,6.50
2018-01-13T01:29:41.426Z,6.50
2018-01-13T01:32:09.318Z,6.50
2018-01-13T01:34:36.244Z,6.50
2018-01-13T01:37:03.405Z,6.50
2018-01-13T01:39:31.050Z,6.50
2018-01-13T01:41:57.242Z,6.50
2018-01-13T01:44:24.312Z,6.50
2018-01-13T01:46:51.752Z,6.50
2018-01-13T01:49:17.959Z,6.40
2018-01-13T01:51:45.933Z,6.50
2018-01-13T01:54:12.888Z,6.40
2018-01-13T01:56:40.083Z,6.40
2018-01-13T01:59:09.201Z,6.40
2018-01-13T02:01:38.531Z,6.40
2018-01-13T02:04:05.939Z,6.40
2018-01-13T02:06:32.468Z,6.40
2018-01-13T02:08:58.640Z,6.30
2018-01-13T02:11:25.634Z,6.40
2018-01-13T02:13:51.851Z,6.40
2018-01-13T02:16:19.034Z,6.40
2018-01-13T02:18:45.302Z,6.30
2018-01-13T02:21:12.755Z,6.30
2018-01-13T02:23:38.941Z,6.20
2018-01-13T02:26:05.745Z,6.30
2018-01-13T02:28:33.560Z,6.30
2018-01-13T02:31:02.012Z,6.30
2018-01-13T02:33:28.274Z,6.30
2018-01-13T02:35:55.329Z,6.30
2018-01-13T02:38:24.214Z,6.30
2018-01-13T02:40:51.028Z,6.30
2018-01-13T02:43:17.318Z,6.20
2018-01-13T02:45:44.541Z,6.20
2018-01-13T02:48:12.397Z,6.20
2018-01-13T02:50:39.500Z,6.20
2018-01-13T02:53:05.679Z,6.10
2018-01-13T02:55:33.598Z,6.10
2018-01-13T02:57:59.768Z,6.10
2018-01-13T03:00:25.988Z,6.00
2018-01-13T03:02:53.425Z,6.00
2018-01-13T03:05:19.585Z,6.00
2018-01-13T03:07:46.461Z,6.10
2018-01-13T03:10:12.744Z,6.10
2018-01-13T03:12:40.075Z,6.00
2018-01-13T03:15:07.190Z,6.00
2018-01-13T03:17:33.397Z,5.90
2018-01-13T03:20:01.396Z,5.90
2018-01-13T03:22:28.698Z,5.90
2018-01-13T03:24:56.329Z,5.90
2018-01-13T03:27:22.701Z,5.80
2018-01-13T03:29:49.263Z,5.90
2018-01-13T03:32:16.247Z,5.80
2018-01-13T03:34:44.151Z,5.80
2018-01-13T03:37:12.354Z,5.80
2018-01-13T03:39:39.280Z,5.70
2018-01-13T03:42:06.501Z,5.70
2018-01-13T03:44:32.741Z,5.70
2018-01-13T03:46:58.899Z,5.70
2018-01-13T03:49:25.095Z,5.70
2018-01-13T03:51:51.932Z,5.70
2018-01-13T03:54:19.026Z,5.70
2018-01-13T03:56:47.002Z,5.70
2018-01-13T03:59:15.517Z,5.60
2018-01-13T04:01:41.810Z,5.60
2018-01-13T04:04:08.733Z,5.60
2018-01-13T04:06:35.858Z,5.60
2018-01-13T04:09:04.494Z,5.60
2018-01-13T04:11:32.536Z,5.60
2018-01-13T04:14:01.863Z,5.60
2018-01-13T04:16:29.790Z,5.50
2018-01-13T04:18:56.886Z,5.50
2018-01-13T04:21:23.863Z,5.40
2018-01-13T04:23:50.950Z,5.40
2018-01-13T04:26:17.938Z,5.40
2018-01-13T04:28:45.225Z,5.40
2018-01-13T04:31:12.370Z,5.40
2018-01-13T04:33:38.625Z,5.40
2018-01-13T04:36:04.806Z,5.40
2018-01-13T04:38:31.888Z,5.30
2018-01-13T04:40:58.077Z,5.30
2018-01-13T04:43:25.219Z,5.30
2018-01-13T04:45:53.761Z,5.40
2018-01-13T04:48:19.974Z,5.40
2018-01-13T04:50:46.967Z,5.30
2018-01-13T04:53:13.153Z,5.30
2018-01-13T04:55:39.976Z,5.30
2018-01-13T04:58:06.151Z,5.30
2018-01-13T05:00:32.353Z,5.20
2018-01-13T05:02:59.280Z,5.30
2018-01-13T05:05:25.672Z,5.30
2018-01-13T05:07:53.497Z,5.30
2018-01-13T05:10:20.298Z,5.30
2018-01-13T05:12:49.063Z,5.30
2018-01-13T05:15:16.172Z,5.20
2018-01-13T05:17:43.796Z,5.10
2018-01-13T05:20:10.046Z,5.10
2018-01-13T05:22:36.249Z,5.10
2018-01-13T05:25:03.254Z,5.10
2018-01-13T05:27:29.514Z,5.10
2018-01-13T05:29:55.689Z,5.00
2018-01-13T05:32:23.639Z,5.10
2018-01-13T05:34:52.164Z,5.00
2018-01-13T05:37:20.260Z,5.00
2018-01-13T05:39:47.949Z,5.00
2018-01-13T05:42:15.884Z,5.10
2018-01-13T05:44:44.487Z,5.10
2018-01-13T05:47:10.915Z,5.10
2018-01-13T05:49:37.428Z,5.10
2018-01-13T05:52:05.071Z,5.10
2018-01-13T05:54:32.973Z,5.30
2018-01-13T05:56:59.196Z,5.10
2018-01-13T05:59:27.264Z,5.10
2018-01-13T06:01:53.477Z,5.20
2018-01-13T06:04:21.230Z,5.20
2018-01-13T06:06:47.461Z,5.10
2018-01-13T06:09:14.743Z,5.10
2018-01-13T06:11:40.924Z,5.20
2018-01-13T06:14:07.949Z,5.20
2018-01-13T06:16:35.518Z,5.20
2018-01-13T06:19:02.784Z,5.20
2018-01-13T06:21:29.926Z,5.20
2018-01-13T06:23:56.129Z,5.20
2018-01-13T06:26:22.935Z,5.20
2018-01-13T06:28:49.922Z,5.20
2018-01-13T06:31:17.089Z,5.00
2018-01-13T06:33:44.306Z,5.20
2018-01-13T06:36:10.713Z,5.20
2018-01-13T06:38:38.903Z,5.20
2018-01-13T06:41:07.413Z,5.20
2018-01-13T06:43:34.390Z,5.20
2018-01-13T06:46:00.546Z,5.20
2018-01-13T06:48:28.407Z,5.20
2018-01-13T06:50:54.615Z,5.20
2018-01-13T06:53:20.782Z,5.20
2018-01-13T06:55:48.030Z,5.20
2018-01-13T06:58:14.347Z,5.20
2018-01-13T07:00:41.341Z,5.30
2018-01-13T07:03:08.407Z,5.30
2018-01-13T07:05:36.281Z,5.40
2018-01-13T07:08:04.495Z,5.40
2018-01-13T07:10:32.442Z,5.40
2018-01-13T07:12:59.532Z,5.40
2018-01-13T07:15:25.904Z,5.30
2018-01-13T07:17:53.312Z,5.50
2018-01-13T07:20:20.310Z,5.50
2018-01-13T07:22:47.374Z,5.60
2018-01-13T07:25:14.846Z,5.60
2018-01-13T07:27:42.169Z,5.60
2018-01-13T07:30:10.030Z,5.60
2018-01-13T07:35:04.147Z,5.60
2018-01-13T07:37:30.353Z,5.60
2018-01-13T07:39:58.132Z,5.50
2018-01-13T07:42:25.198Z,5.50
2018-01-13T07:44:51.429Z,5.50
2018-01-13T07:47:17.698Z,5.50
2018-01-13T07:49:43.884Z,5.50
2018-01-13T07:52:10.140Z,5.60
2018-01-13T07:54:36.337Z,5.60
2018-01-13T07:57:03.190Z,5.60
2018-01-13T07:59:29.662Z,5.70
2018-01-13T08:01:55.876Z,5.70
2018-01-13T08:04:22.109Z,5.80
2018-01-13T08:06:49.839Z,5.80
2018-01-13T08:09:16.114Z,5.70
2018-01-13T08:11:45.871Z,5.80
2018-01-13T08:14:13.676Z,5.80
2018-01-13T08:16:41.055Z,5.80
2018-01-13T08:19:07.598Z,5.80
2018-01-13T08:21:35.667Z,5.80
2018-01-13T08:24:02.856Z,5.80
2018-01-13T08:26:29.900Z,5.50
2018-01-13T08:28:57.342Z,5.80
2018-01-13T08:31:25.233Z,5.90
2018-01-13T08:33:53.686Z,5.90
2018-01-13T08:36:21.479Z,5.90
2018-01-13T08:38:48.630Z,5.90
2018-01-13T08:41:17.663Z,5.90
2018-01-13T08:43:44.832Z,5.90
2018-01-13T08:46:11.915Z,5.90
2018-01-13T08:48:38.967Z,5.90
2018-01-13T08:51:06.450Z,6.00
2018-01-13T08:53:34.037Z,6.00
2018-01-13T08:56:01.033Z,6.00
2018-01-13T08:58:29.568Z,6.00
2018-01-13T09:00:55.782Z,6.00
2018-01-13T09:03:22.901Z,6.00
2018-01-13T09:05:49.107Z,6.00
2018-01-13T09:08:17.124Z,6.00
2018-01-13T09:10:45.237Z,6.00
2018-01-13T09:13:12.610Z,6.00
2018-01-13T09:15:40.477Z,6.00
2018-01-13T09:18:07.456Z,6.10
2018-01-13T09:20:33.676Z,6.00
2018-01-13T09:23:01.017Z,6.00
2018-01-13T09:25:29.891Z,6.10
2018-01-13T09:27:56.788Z,6.10
2018-01-13T09:30:23.031Z,6.10
2018-01-13T09:32:49.238Z,6.10
2018-01-13T09:35:15.512Z,6.20
2018-01-13T09:37:42.059Z,6.20
2018-01-13T09:40:08.271Z,6.20
2018-01-13T09:42:35.390Z,6.20
2018-01-13T09:45:03.119Z,6.20
2018-01-13T09:47:30.713Z,6.20
2018-01-13T09:49:57.689Z,6.20
2018-01-13T09:52:24.899Z,6.30
2018-01-13T09:54:52.892Z,6.30
2018-01-13T09:57:19.043Z,6.30
2018-01-13T09:59:46.050Z,6.40
2018-01-13T10:02:14.352Z,6.30
2018-01-13T10:04:40.941Z,6.40
2018-01-13T10:07:07.957Z,6.40
2018-01-13T10:09:35.058Z,6.40
2018-01-13T10:12:02.151Z,6.50
2018-01-13T10:14:28.338Z,6.40
2018-01-13T10:16:54.626Z,6.40
2018-01-13T10:19:20.812Z,6.50
2018-01-13T10:21:48.641Z,6.40
2018-01-13T10:24:15.662Z,6.50
2018-01-13T10:26:41.982Z,6.50
2018-01-13T10:29:08.776Z,6.50
2018-01-13T10:31:35.736Z,6.50
2018-01-13T10:34:01.965Z,6.60
2018-01-13T10:36:28.340Z,6.60
2018-01-13T10:38:56.281Z,6.60
2018-01-13T10:41:22.561Z,6.60
2018-01-13T10:43:49.546Z,6.60
2018-01-13T10:46:16.172Z,6.70
2018-01-13T10:48:44.569Z,6.70
2018-01-13T10:51:13.112Z,6.60
2018-01-13T10:53:40.042Z,6.70
2018-01-13T10:56:07.746Z,6.70
2018-01-13T10:58:35.685Z,6.70
2018-01-13T11:01:03.054Z,6.70
2018-01-13T11:03:29.992Z,6.70
2018-01-13T11:05:57.079Z,6.70
2018-01-13T11:08:23.291Z,6.70
2018-01-13T11:10:51.242Z,6.70
2018-01-13T11:13:18.221Z,6.70
2018-01-13T11:15:45.098Z,6.70
2018-01-13T11:18:13.331Z,6.70
2018-01-13T11:20:39.534Z,6.60
2018-01-13T11:23:06.461Z,6.70
2018-01-13T11:25:34.442Z,6.70
2018-01-13T11:28:02.276Z,6.80
2018-01-13T11:30:33.074Z,6.80
2018-01-13T11:32:59.300Z,6.80
2018-01-13T11:35:25.622Z,6.90
2018-01-13T11:37:52.565Z,6.90
2018-01-13T11:40:21.326Z,6.90
2018-01-13T11:42:47.779Z,7.00
2018-01-13T11:45:14.720Z,7.30
2018-01-13T11:47:44.583Z,7.40
2018-01-13T11:50:10.761Z,7.40
2018-01-13T11:52:37.815Z,7.60
2018-01-13T11:55:06.580Z,7.70
2018-01-13T11:57:35.216Z,7.70
2018-01-13T12:00:03.697Z,7.80
2018-01-13T12:02:29.962Z,8.50
2018-01-13T12:04:56.198Z,8.50
2018-01-13T12:07:22.498Z,9.00
2018-01-13T12:09:48.900Z,9.00
2018-01-13T12:12:15.874Z,9.10
2018-01-13T12:14:42.070Z,9.20
2018-01-13T12:17:09.021Z,8.30
2018-01-13T12:19:36.255Z,8.10
2018-01-13T12:22:03.290Z,7.90
2018-01-13T12:24:30.360Z,7.80
2018-01-13T12:26:57.389Z,7.60
2018-01-13T12:29:24.938Z,7.60
2018-01-13T12:31:51.157Z,7.60
2018-01-13T12:34:17.436Z,7.60
2018-01-13T12:36:44.385Z,7.60
2018-01-13T12:39:12.092Z,7.70
2018-01-13T12:41:38.393Z,7.60
2018-01-13T12:44:04.586Z,7.70
2018-01-13T12:46:30.995Z,7.70
2018-01-13T12:48:57.193Z,7.70
2018-01-13T12:51:23.428Z,7.80
2018-01-13T12:53:49.614Z,7.80
2018-01-13T12:56:16.542Z,7.70
2018-01-13T12:58:45.325Z,7.70
2018-01-13T13:01:12.398Z,7.80
2018-01-13T13:03:40.580Z,7.80
2018-01-13T13:06:08.579Z,7.70
2018-01-13T13:08:36.005Z,7.70
2018-01-13T13:11:03.743Z,7.90
2018-01-13T13:13:31.717Z,8.40
2018-01-13T13:15:57.934Z,8.50
2018-01-13T13:18:24.738Z,9.00
2018-01-13T13:20:51.211Z,8.90
2018-01-13T13:23:17.412Z,8.60
2018-01-13T13:25:43.655Z,8.50
2018-01-13T13:28:11.365Z,8.40
2018-01-13T13:30:40.652Z,8.00
2018-01-13T13:33:07.776Z,8.00
2018-01-13T13:35:33.987Z,7.90
2018-01-13T13:38:01.879Z,7.90
2018-01-13T13:40:28.788Z,7.90
2018-01-13T13:42:54.984Z,7.70
2018-01-13T13:45:21.958Z,8.00
2018-01-13T13:47:48.754Z,7.90
2018-01-13T13:50:14.917Z,7.80
2018-01-13T13:52:42.238Z,7.30
2018-01-13T13:55:08.470Z,7.30
2018-01-13T13:57:35.513Z,7.00
2018-01-13T14:00:01.728Z,7.20
2018-01-13T14:02:28.901Z,7.10
2018-01-13T14:14:45.145Z,6.90
2018-01-13T14:17:11.360Z,6.90
2018-01-13T14:19:37.572Z,6.90
2018-01-13T14:22:03.903Z,7.00
2018-01-13T14:24:30.146Z,6.90
2018-01-13T14:26:56.419Z,6.80
2018-01-13T14:29:23.338Z,6.90
2018-01-13T14:31:49.646Z,6.80
2018-01-13T14:34:17.626Z,6.80
2018-01-13T14:36:43.860Z,6.80
2018-01-13T14:39:10.098Z,6.80
2018-01-13T14:41:36.301Z,6.80
2018-01-13T14:44:03.362Z,6.80
2018-01-13T14:46:29.691Z,6.80
2018-01-13T14:48:55.985Z,6.80
2018-01-13T14:51:23.081Z,6.80
2018-01-13T14:53:51.501Z,6.80
2018-01-13T14:56:17.761Z,6.80
2018-01-13T14:58:45.034Z,6.80
2018-01-13T15:01:11.479Z,6.80
2018-01-13T15:03:37.667Z,6.80
2018-01-13T15:06:04.720Z,6.80
2018-01-13T15:08:30.914Z,6.80
2018-01-13T15:10:59.054Z,6.70
2018-01-13T15:13:25.269Z,6.70
2018-01-13T15:15:52.484Z,6.70
2018-01-13T15:18:20.638Z,6.70
2018-01-13T15:20:46.905Z,6.70
2018-01-13T15:23:14.104Z,6.70
2018-01-13T15:25:40.307Z,6.70
2018-01-13T15:28:06.518Z,6.70
2018-01-13T15:30:36.614Z,6.70
2018-01-13T15:33:03.653Z,6.60
2018-01-13T15:35:30.678Z,6.60
2018-01-13T15:37:57.782Z,6.60
2018-01-13T15:40:24.437Z,6.60
2018-01-13T15:42:54.243Z,5.50
2018-01-13T15:45:20.738Z,6.60
2018-01-13T15:47:47.771Z,6.60
2018-01-13T15:50:14.014Z,6.60
2018-01-13T15:52:43.226Z,6.60
2018-01-13T15:55:09.464Z,6.60
2018-01-13T15:57:36.437Z,6.80
2018-01-13T16:00:02.767Z,6.80
2018-01-13T16:02:31.207Z,6.70
2018-01-13T16:14:44.061Z,7.40
2018-01-13T16:17:10.314Z,7.90
2018-01-13T16:19:37.305Z,8.40
2018-01-13T16:22:05.168Z,8.30
2018-01-13T16:24:32.351Z,8.60
2018-01-13T16:26:58.812Z,8.20
2018-01-13T16:29:26.871Z,7.70
2018-01-13T16:31:53.321Z,7.30
2018-01-13T16:34:19.564Z,7.00
2018-01-13T16:36:46.582Z,6.70
2018-01-13T16:39:12.799Z,6.60
2018-01-13T16:41:39.326Z,6.60
2018-01-13T16:44:05.555Z,6.60
2018-01-13T16:46:31.826Z,6.50
2018-01-13T16:48:58.165Z,6.50
2018-01-13T16:51:25.111Z,6.50
2018-01-13T16:53:52.132Z,6.50
2018-01-13T16:56:19.470Z,6.50
2018-01-13T16:58:45.722Z,6.50
2018-01-13T17:01:11.944Z,6.50
2018-01-13T17:03:38.272Z,7.80
2018-01-13T17:06:10.559Z,6.50
2018-01-13T17:08:36.820Z,6.50
2018-01-13T17:11:03.055Z,6.50
2018-01-13T17:13:29.268Z,6.40
2018-01-13T17:15:55.753Z,6.40
2018-01-13T17:18:22.961Z,6.40
2018-01-13T17:20:50.033Z,6.40
2018-01-13T17:23:16.284Z,6.40
2018-01-13T17:25:42.527Z,6.40
2018-01-13T17:28:08.964Z,6.30
2018-01-13T17:30:35.305Z,6.30
2018-01-13T17:33:03.293Z,6.30
2018-01-13T17:35:30.255Z,6.30
2018-01-13T17:37:56.458Z,6.30
2018-01-13T17:40:23.454Z,6.30
2018-01-13T17:42:51.475Z,6.30
2018-01-13T17:45:18.487Z,6.30
2018-01-13T17:47:44.805Z,6.30
2018-01-13T17:50:11.348Z,6.30
2018-01-13T17:52:38.311Z,6.30
2018-01-13T17:55:04.481Z,6.20
2018-01-13T17:57:31.526Z,6.30
2018-01-13T17:59:59.366Z,6.30
2018-01-13T18:02:25.626Z,6.20
2018-01-13T18:04:52.957Z,6.30
2018-01-13T18:07:19.235Z,6.60
2018-01-13T18:09:45.463Z,6.30
2018-01-13T18:12:11.639Z,6.50
2018-01-13T18:14:37.899Z,6.30
2018-01-13T18:17:04.853Z,6.30
2018-01-13T18:19:31.199Z,6.30
2018-01-13T18:21:58.181Z,6.30
2018-01-13T18:24:24.844Z,6.20
2018-01-13T18:26:51.053Z,6.20
2018-01-13T18:29:18.042Z,6.20
2018-01-13T18:31:44.987Z,6.10
2018-01-13T18:34:12.028Z,6.10
2018-01-13T18:36:39.069Z,6.10
2018-01-13T18:39:06.088Z,6.10
2018-01-13T18:41:32.340Z,6.10
2018-01-13T18:43:59.430Z,6.10
2018-01-13T18:46:25.692Z,6.10
2018-01-13T18:48:51.998Z,6.10
2018-01-13T18:51:18.237Z,6.10
2018-01-13T18:53:44.487Z,6.10
2018-01-13T18:56:11.528Z,6.10
2018-01-13T18:58:37.933Z,6.00
2018-01-13T19:01:04.212Z,6.00
2018-01-13T19:03:30.443Z,6.00
2018-01-13T19:05:56.695Z,6.00
2018-01-13T19:08:23.721Z,6.00
2018-01-13T19:10:51.306Z,6.00
2018-01-13T19:13:17.598Z,5.90
2018-01-13T19:15:44.627Z,6.00
2018-01-13T19:18:10.895Z,5.90
2018-01-13T19:20:37.126Z,6.00
2018-01-13T19:23:04.086Z,5.90
2018-01-13T19:25:31.240Z,5.90
2018-01-13T19:27:58.961Z,5.90
2018-01-13T19:30:25.240Z,5.90
2018-01-13T19:32:51.454Z,5.90
2018-01-13T19:35:18.451Z,5.90
2018-01-13T19:37:44.637Z,5.90
2018-01-13T19:40:10.901Z,5.80
2018-01-13T19:42:37.232Z,5.90
2018-01-13T19:45:03.547Z,5.90
2018-01-13T19:47:29.842Z,5.90
2018-01-13T19:49:56.816Z,5.80
2018-01-13T19:52:23.723Z,6.40
2018-01-13T19:54:49.949Z,5.90
2018-01-13T19:57:16.305Z,5.80
2018-01-13T19:59:43.285Z,5.80
2018-01-13T20:02:09.564Z,5.80
2018-01-13T20:04:35.754Z,5.80
2018-01-13T20:07:01.978Z,5.80
2018-01-13T20:09:28.234Z,5.80
2018-01-13T20:11:54.481Z,5.80
2018-01-13T20:14:20.739Z,5.80
2018-01-13T20:16:46.960Z,5.80
2018-01-13T20:19:14.192Z,5.70
2018-01-13T20:21:40.486Z,5.80
2018-01-13T20:24:06.705Z,5.80
2018-01-13T20:26:32.919Z,5.70
2018-01-13T20:28:59.152Z,5.70
2018-01-13T20:31:25.368Z,5.70
2018-01-13T20:33:52.350Z,5.70
2018-01-13T20:36:19.512Z,5.60
2018-01-13T20:38:45.804Z,5.60
2018-01-13T20:41:12.286Z,5.60
2018-01-13T20:43:38.651Z,5.60
2018-01-13T20:46:06.354Z,5.60
2018-01-13T20:48:33.072Z,5.60
2018-01-13T20:50:59.343Z,5.60
2018-01-13T20:53:25.542Z,5.60
2018-01-13T20:55:51.774Z,5.60
2018-01-13T20:58:18.160Z,5.60
2018-01-13T21:00:44.491Z,5.60
2018-01-13T21:03:10.677Z,5.50
2018-01-13T21:05:36.994Z,5.50
2018-01-13T21:08:03.221Z,5.50
2018-01-13T21:10:29.575Z,5.50
2018-01-13T21:12:55.931Z,5.50
2018-01-13T21:15:22.111Z,5.50
2018-01-13T21:17:48.347Z,5.50
2018-01-13T21:20:14.634Z,5.50
2018-01-13T21:22:40.945Z,5.50
2018-01-13T21:25:07.261Z,5.50
2018-01-13T21:27:33.476Z,5.40
2018-01-13T21:29:59.657Z,5.40
2018-01-13T21:32:27.356Z,5.50
2018-01-13T21:34:53.660Z,5.40
2018-01-13T21:37:20.662Z,5.40
2018-01-13T21:39:47.119Z,5.40
2018-01-13T21:42:13.806Z,5.40
2018-01-13T21:44:40.040Z,5.40
2018-01-13T21:47:06.367Z,5.40
2018-01-13T21:49:32.627Z,5.40
2018-01-13T21:51:58.847Z,5.40
2018-01-13T21:54:25.155Z,5.40
2018-01-13T21:56:51.365Z,5.40
2018-01-13T21:59:17.633Z,5.40
2018-01-13T22:01:43.868Z,5.30
2018-01-13T22:04:10.169Z,5.40
2018-01-13T22:06:38.645Z,5.40
2018-01-13T22:09:05.399Z,5.30
2018-01-13T22:11:31.628Z,5.40
2018-01-13T22:13:57.858Z,5.30
2018-01-13T22:16:24.191Z,5.30
2018-01-13T22:18:51.146Z,5.30
2018-01-13T22:21:17.476Z,5.30
2018-01-13T22:23:43.685Z,5.30
2018-01-13T22:26:09.962Z,5.30
2018-01-13T22:28:36.172Z,5.30
2018-01-13T22:31:02.402Z,5.30
2018-01-13T22:33:28.650Z,5.40
2018-01-13T22:35:54.869Z,5.20
2018-01-13T22:38:21.811Z,5.30
2018-01-13T22:40:48.033Z,5.20
2018-01-13T22:43:14.218Z,5.20
2018-01-13T22:45:42.660Z,5.20
2018-01-13T22:48:08.890Z,5.30
2018-01-13T22:50:35.850Z,5.30
2018-01-13T22:53:02.074Z,5.20
2018-01-13T22:55:28.334Z,5.20
2018-01-13T22:57:55.388Z,5.20
2018-01-13T23:00:28.590Z,5.20
2018-01-13T23:02:56.311Z,5.20
2018-01-13T23:05:22.494Z,5.20
2018-01-13T23:07:48.722Z,5.20
2018-01-13T23:10:15.694Z,5.10
2018-01-13T23:12:41.928Z,5.10
2018-01-13T23:15:08.200Z,5.10
2018-01-13T23:17:35.185Z,5.10
2018-01-13T23:20:01.433Z,5.10
2018-01-13T23:22:27.681Z,5.10
2018-01-13T23:24:53.921Z,5.10
2018-01-13T23:27:20.953Z,5.10
2018-01-13T23:29:47.216Z,5.10
2018-01-13T23:32:14.161Z,5.10
2018-01-13T23:34:41.253Z,5.10
2018-01-13T23:37:08.589Z,5.10
2018-01-13T23:39:35.210Z,5.10
2018-01-13T23:42:02.318Z,5.00
2018-01-13T23:44:28.904Z,5.00
2018-01-13T23:46:57.227Z,5.00
2018-01-13T23:49:23.487Z,5.00
2018-01-13T23:51:51.253Z,5.00
2018-01-13T23:54:17.986Z,4.90
2018-01-13T23:56:44.278Z,4.90
2018-01-13T23:59:10.494Z,4.90
